Time;durP1;ratioP1;P1;durP2;ratioP2;P2;SDS_P1;SDS_P2;PMS_P1;PMS_P2;Temp;Humidity;BMP_temperature;BMP_pressure;BME280_temperature;BME280_humidity;BME280_pressure;Samples;Min_cycle;Max_cycle;Signal;HPM_P1;HPM_P2
2023/03/07 00:00:25;;;;;;;18.10;11.40;;;;;;;2.86;74.76;94513.33;106765;1274;22738;-64
2023/03/07 00:03:13;;;;;;;12.10;7.10;;;;;;;2.89;75.07;94514.17;106709;1252;22528;-63
2023/03/07 00:05:42;;;;;;;15.80;10.10;;;;;;;2.79;75.37;94513.20;106772;1274;22526;-64
2023/03/07 00:08:11;;;;;;;22.30;13.90;;;;;;;2.72;75.72;94518.64;106722;1274;22517;-64
2023/03/07 00:10:39;;;;;;;26.30;15.00;;;;;;;2.67;75.48;94514.14;106787;1274;22598;-63
2023/03/07 00:13:07;;;;;;;33.50;20.40;;;;;;;2.66;75.39;94508.42;106751;1274;25534;-64
2023/03/07 00:15:37;;;;;;;19.50;10.80;;;;;;;2.65;75.06;94511.03;106753;1274;23887;-64
2023/03/07 00:18:06;;;;;;;23.10;12.70;;;;;;;2.59;75.12;94511.57;106739;1274;22522;-64
2023/03/07 00:20:34;;;;;;;12.20;7.50;;;;;;;2.53;75.09;94510.22;106776;1274;22619;-64
2023/03/07 00:23:03;;;;;;;8.50;5.60;;;;;;;2.53;75.41;94510.05;106764;1274;24561;-64
2023/03/07 00:25:31;;;;;;;44.10;20.40;;;;;;;2.48;76.64;94510.25;106658;1274;24221;-64
2023/03/07 00:27:59;;;;;;;36.20;16.80;;;;;;;2.39;76.70;94509.26;106765;1274;22564;-64
2023/03/07 00:30:28;;;;;;;30.30;15.00;;;;;;;2.35;76.60;94507.53;106743;1274;22511;-64
2023/03/07 00:32:56;;;;;;;37.70;17.50;;;;;;;2.34;76.90;94502.16;106715;1274;25464;-64
2023/03/07 00:35:24;;;;;;;18.60;9.80;;;;;;;2.31;77.27;94499.73;106799;1274;22734;-64
2023/03/07 00:37:52;;;;;;;15.80;9.00;;;;;;;2.26;77.18;94499.59;106789;1274;25407;-63
2023/03/07 00:40:20;;;;;;;13.20;8.00;;;;;;;2.25;76.93;94497.69;106712;1274;24428;-64
2023/03/07 00:42:48;;;;;;;15.90;8.50;;;;;;;2.24;77.39;94493.70;106731;1274;25402;-64
2023/03/07 00:45:16;;;;;;;16.10;8.50;;;;;;;2.24;77.43;94499.95;106734;1274;24253;-64
2023/03/07 00:47:44;;;;;;;15.90;8.30;;;;;;;2.23;77.21;94494.57;106667;1274;22520;-64
2023/03/07 00:50:13;;;;;;;16.60;8.40;;;;;;;2.22;77.16;94492.84;106783;1274;22523;-63
2023/03/07 00:52:41;;;;;;;17.50;8.10;;;;;;;2.18;77.62;94493.02;106775;1256;24212;-63
2023/03/07 00:55:09;;;;;;;17.10;8.60;;;;;;;2.13;78.50;94496.70;106748;1274;22633;-64
2023/03/07 00:57:38;;;;;;;13.10;6.80;;;;;;;2.10;78.12;94492.54;106796;1274;22609;-63
2023/03/07 01:00:07;;;;;;;14.20;8.00;;;;;;;2.10;77.40;94494.80;106791;1274;22527;-63
2023/03/07 01:02:36;;;;;;;14.60;7.80;;;;;;;2.13;77.63;94491.66;106809;1274;22514;-63
2023/03/07 01:05:05;;;;;;;14.10;6.90;;;;;;;2.16;77.36;94491.64;106782;1274;22523;-64
2023/03/07 01:07:33;;;;;;;14.50;7.80;;;;;;;2.19;77.15;94479.66;106661;1274;22522;-63
2023/03/07 01:10:02;;;;;;;13.20;7.80;;;;;;;2.22;78.16;94478.08;106768;1274;25447;-63
2023/03/07 01:12:30;;;;;;;14.50;8.40;;;;;;;2.25;77.92;94477.90;106771;1274;25297;-63
2023/03/07 01:14:59;;;;;;;17.50;8.30;;;;;;;2.33;77.95;94477.88;106739;1274;22618;-63
2023/03/07 01:17:27;;;;;;;11.90;6.70;;;;;;;2.39;77.93;94473.67;106850;1273;22661;-63
2023/03/07 01:19:55;;;;;;;10.90;6.40;;;;;;;2.44;77.95;94469.48;106754;1274;25399;-63
2023/03/07 01:22:23;;;;;;;11.60;7.10;;;;;;;2.52;78.03;94468.23;106717;1274;25386;-63
2023/03/07 01:24:52;;;;;;;13.30;8.00;;;;;;;2.55;77.85;94468.02;106799;1274;24356;-63
2023/03/07 01:27:20;;;;;;;15.30;8.20;;;;;;;2.59;77.80;94466.09;106722;1274;25226;-64
2023/03/07 01:29:48;;;;;;;13.70;8.30;;;;;;;2.65;78.10;94466.06;106719;1264;22996;-63
2023/03/07 01:32:17;;;;;;;10.90;6.60;;;;;;;2.69;78.21;94466.20;106722;1272;25262;-63
2023/03/07 01:34:45;;;;;;;11.90;6.70;;;;;;;2.80;78.24;94467.17;106672;1274;22524;-64
2023/03/07 01:37:14;;;;;;;11.20;6.20;;;;;;;2.90;77.95;94466.23;106767;1274;22659;-63
2023/03/07 01:39:42;;;;;;;10.90;6.60;;;;;;;2.93;77.60;94462.73;106688;1274;22781;-63
2023/03/07 01:42:15;;;;;;;10.20;6.10;;;;;;;2.86;77.22;94464.70;106654;1274;22793;-63
2023/03/07 01:45:01;;;;;;;16.50;9.90;;;;;;;2.85;78.31;94460.73;106756;1274;22569;-63
2023/03/07 01:47:47;;;;;;;33.50;15.50;;;;;;;2.88;78.38;94458.60;106661;1274;22503;-63
2023/03/07 01:50:17;;;;;;;27.10;13.90;;;;;;;2.87;78.19;94459.48;106805;1274;24234;-63
2023/03/07 01:52:53;;;;;;;25.20;13.50;;;;;;;2.83;78.36;94458.81;106673;1274;22520;-63
2023/03/07 01:55:31;;;;;;;21.40;11.00;;;;;;;2.77;78.66;94456.26;106700;1274;25526;-64
2023/03/07 01:58:13;;;;;;;11.90;7.20;;;;;;;2.66;78.86;94455.30;106836;1274;22523;-63
2023/03/07 02:00:43;;;;;;;8.60;5.10;;;;;;;2.58;79.54;94452.21;106724;1274;24213;-63
2023/03/07 02:03:28;;;;;;;7.90;5.10;;;;;;;2.50;79.26;94452.26;106642;1274;22590;-63
2023/03/07 02:06:04;;;;;;;10.30;6.40;;;;;;;2.45;81.42;94452.81;106763;1274;22521;-63
2023/03/07 02:08:35;;;;;;;14.50;7.70;;;;;;;2.39;82.04;94453.02;106595;1274;22646;-63
2023/03/07 02:11:04;;;;;;;26.90;14.00;;;;;;;2.30;81.44;94456.71;106766;1274;22924;-63
2023/03/07 02:13:34;;;;;;;25.70;12.80;;;;;;;2.28;81.80;94453.60;106728;1274;22484;-64
2023/03/07 02:16:04;;;;;;;20.20;12.20;;;;;;;2.25;81.94;94449.61;106781;1274;22998;-64
2023/03/07 02:18:37;;;;;;;19.20;10.90;;;;;;;2.27;81.55;94451.17;106782;1274;25491;-63
2023/03/07 02:21:27;;;;;;;25.40;11.30;;;;;;;2.26;81.97;94450.48;106795;1274;22647;-63
2023/03/07 02:24:05;;;;;;;13.00;6.40;;;;;;;2.23;82.74;94449.81;106782;1274;22521;-63
2023/03/07 02:26:42;;;;;;;13.10;6.50;;;;;;;2.22;83.79;94449.30;106675;1274;24356;-63
2023/03/07 02:29:12;;;;;;;14.60;7.40;;;;;;;2.20;84.04;94448.77;106783;1274;22625;-64
2023/03/07 02:31:41;;;;;;;18.10;9.90;;;;;;;2.15;85.10;94446.38;106756;1274;24331;-64
2023/03/07 02:34:27;;;;;;;18.50;9.70;;;;;;;2.16;84.38;94450.19;106749;1274;25265;-64
2023/03/07 02:37:11;;;;;;;12.30;8.80;;;;;;;2.21;84.04;94451.02;106697;1274;24270;-63
2023/03/07 02:39:41;;;;;;;21.10;10.70;;;;;;;2.24;84.56;94456.56;106727;1274;22650;-63
2023/03/07 02:42:16;;;;;;;24.20;11.50;;;;;;;2.24;84.74;94457.45;106712;1274;24193;-64
2023/03/07 02:45:00;;;;;;;16.60;9.40;;;;;;;2.31;84.72;94462.27;106736;1274;24327;-63
2023/03/07 02:47:30;;;;;;;13.80;8.40;;;;;;;2.32;84.74;94460.34;106724;1274;22520;-63
2023/03/07 02:49:59;;;;;;;10.30;5.80;;;;;;;2.37;84.43;94461.54;106716;1274;22563;-64
2023/03/07 02:52:28;;;;;;;13.50;5.90;;;;;;;2.43;83.91;94460.11;106664;1274;22514;-63
2023/03/07 02:54:57;;;;;;;8.40;4.50;;;;;;;2.46;84.35;94462.19;106836;1257;22782;-63
2023/03/07 02:57:28;;;;;;;6.50;4.20;;;;;;;2.53;84.07;94460.05;106719;1274;22533;-64
2023/03/07 02:59:56;;;;;;;9.30;4.60;;;;;;;2.56;83.43;94462.45;106754;1274;25317;-64
2023/03/07 03:02:25;;;;;;;6.90;5.20;;;;;;;2.57;83.55;94462.63;106709;1254;22637;-63
2023/03/07 03:04:53;;;;;;;5.00;3.50;;;;;;;2.59;83.47;94457.76;106813;1274;25540;-64
2023/03/07 03:07:22;;;;;;;6.20;3.50;;;;;;;2.63;83.37;94461.73;106806;1274;24033;-63
2023/03/07 03:09:51;;;;;;;4.20;3.00;;;;;;;2.71;83.79;94460.46;106765;1274;24243;-63
2023/03/07 03:12:20;;;;;;;4.30;3.00;;;;;;;2.71;83.65;94464.27;106797;1274;25226;-63
2023/03/07 03:14:48;;;;;;;3.80;2.80;;;;;;;2.72;83.59;94463.58;106705;1274;22639;-63
2023/03/07 03:17:17;;;;;;;3.30;2.60;;;;;;;2.76;84.05;94464.42;106650;1274;25350;-63
2023/03/07 03:19:45;;;;;;;4.30;2.60;;;;;;;2.77;83.76;94464.59;106617;1274;22634;-64
2023/03/07 03:22:13;;;;;;;3.00;2.10;;;;;;;2.84;84.04;94460.71;106750;1274;22512;-64
2023/03/07 03:24:44;;;;;;;2.60;2.20;;;;;;;2.81;83.35;94462.83;106765;1274;25466;-64
2023/03/07 03:27:14;;;;;;;4.70;2.50;;;;;;;2.80;83.57;94466.82;106729;1274;24257;-64
2023/03/07 03:29:43;;;;;;;5.50;3.40;;;;;;;2.80;83.79;94474.13;106738;1274;25400;-63
2023/03/07 03:32:12;;;;;;;3.60;2.90;;;;;;;2.79;83.65;94474.64;106670;1274;24367;-63
2023/03/07 03:34:42;;;;;;;3.10;2.70;;;;;;;2.74;83.40;94470.35;106694;1274;22514;-64
2023/03/07 03:37:10;;;;;;;3.90;2.50;;;;;;;2.71;83.82;94475.23;106740;1274;24370;-64
2023/03/07 03:39:39;;;;;;;12.60;7.60;;;;;;;2.69;83.82;94474.02;106813;1274;25632;-64
2023/03/07 03:42:08;;;;;;;3.30;2.80;;;;;;;2.64;83.67;94474.74;106777;1274;22536;-63
2023/03/07 03:44:36;;;;;;;2.90;2.20;;;;;;;2.61;83.79;94476.15;106718;1274;22514;-63
2023/03/07 03:47:05;;;;;;;4.20;2.80;;;;;;;2.53;84.03;94476.89;106731;1274;22575;-63
2023/03/07 03:49:33;;;;;;;4.90;2.90;;;;;;;2.48;83.93;94477.96;106759;1274;25491;-64
2023/03/07 03:52:01;;;;;;;4.00;3.10;;;;;;;2.44;83.96;94477.29;106766;1254;22659;-64
2023/03/07 03:54:30;;;;;;;4.20;2.70;;;;;;;2.38;83.61;94483.22;106731;1274;24252;-64
2023/03/07 03:56:58;;;;;;;3.50;2.20;;;;;;;2.35;84.20;94485.31;106668;1274;22525;-63
2023/03/07 03:59:27;;;;;;;3.00;2.20;;;;;;;2.32;85.21;94486.90;106710;1274;22653;-63
2023/03/07 04:01:55;;;;;;;2.90;2.00;;;;;;;2.31;84.95;94484.99;106783;1274;25340;-63
2023/03/07 04:04:23;;;;;;;2.40;2.10;;;;;;;2.26;84.67;94484.67;106705;1274;22524;-63
2023/03/07 04:06:52;;;;;;;3.10;2.20;;;;;;;2.25;84.80;94485.02;106694;1274;25495;-64
2023/03/07 04:09:20;;;;;;;1.90;1.70;;;;;;;2.26;85.13;94484.67;106624;1274;22640;-64
2023/03/07 04:11:48;;;;;;;2.90;2.00;;;;;;;2.24;84.61;94484.67;106637;1274;24263;-64
2023/03/07 04:14:16;;;;;;;2.80;2.30;;;;;;;2.20;84.34;94479.84;106775;1274;24192;-65
2023/03/07 04:16:46;;;;;;;3.40;2.70;;;;;;;2.20;84.07;94481.91;106756;1274;22661;-65
2023/03/07 04:19:15;;;;;;;3.80;2.80;;;;;;;2.21;83.78;94485.20;106739;1274;22560;-65
2023/03/07 04:21:43;;;;;;;98.90;34.70;;;;;;;2.16;85.44;94484.55;106813;1274;22512;-65
2023/03/07 04:24:14;;;;;;;86.40;27.70;;;;;;;2.01;87.90;94483.73;106720;1274;22534;-65
2023/03/07 04:26:42;;;;;;;77.40;27.20;;;;;;;1.97;87.44;94481.66;106658;1274;22529;-67
2023/03/07 04:29:12;;;;;;;86.60;34.40;;;;;;;1.94;87.58;94481.84;106775;1274;22630;-65
2023/03/07 04:31:42;;;;;;;56.30;22.10;;;;;;;1.94;88.02;94486.02;106733;1274;23017;-65
2023/03/07 04:34:11;;;;;;;56.20;21.40;;;;;;;2.00;87.99;94486.34;106837;1274;22529;-65
2023/03/07 04:36:39;;;;;;;47.10;20.60;;;;;;;2.06;87.63;94485.45;106651;1274;25934;-65
2023/03/07 04:39:08;;;;;;;44.80;19.00;;;;;;;2.12;87.44;94491.48;106722;1274;22672;-65
2023/03/07 04:41:37;;;;;;;38.70;17.70;;;;;;;2.23;87.59;94491.61;106679;1274;22652;-65
2023/03/07 04:44:09;;;;;;;27.90;16.10;;;;;;;2.33;87.15;94486.55;106767;1274;22671;-65
2023/03/07 04:46:38;;;;;;;18.30;9.50;;;;;;;2.42;87.09;94492.23;106780;1274;23080;-65
2023/03/07 04:49:06;;;;;;;8.80;5.90;;;;;;;2.46;86.58;94490.47;106681;1274;22927;-66
2023/03/07 04:51:35;;;;;;;12.80;6.60;;;;;;;2.48;86.48;94484.39;106744;1274;25389;-66
2023/03/07 04:54:03;;;;;;;15.30;8.40;;;;;;;2.49;86.33;94485.25;106714;1274;22649;-65
2023/03/07 04:56:32;;;;;;;19.70;9.80;;;;;;;2.46;85.85;94485.27;106602;1274;23076;-65
2023/03/07 04:59:00;;;;;;;23.80;12.30;;;;;;;2.52;86.25;94488.17;106796;1274;25318;-65
2023/03/07 05:01:29;;;;;;;28.40;13.50;;;;;;;2.53;85.85;94485.91;106670;1274;22517;-65
2023/03/07 05:03:58;;;;;;;26.10;13.50;;;;;;;2.46;85.80;94482.14;106771;1274;24378;-65
2023/03/07 05:06:26;;;;;;;35.90;17.90;;;;;;;2.48;86.14;94481.09;106677;1274;24352;-65
2023/03/07 05:08:54;;;;;;;31.20;16.30;;;;;;;2.57;86.38;94481.90;106704;1274;23956;-66
2023/03/07 05:11:22;;;;;;;21.80;12.40;;;;;;;2.65;86.04;94482.03;106667;1274;25236;-65
2023/03/07 05:13:52;;;;;;;16.00;9.20;;;;;;;2.65;85.50;94485.16;106780;1274;22514;-65
2023/03/07 05:16:22;;;;;;;10.60;7.10;;;;;;;2.63;85.28;94488.48;106832;1274;22995;-65
2023/03/07 05:18:50;;;;;;;10.20;7.70;;;;;;;2.55;84.86;94493.19;106790;1251;22524;-65
2023/03/07 05:21:19;;;;;;;12.90;8.00;;;;;;;2.47;84.62;94491.50;106836;1274;22517;-66
2023/03/07 05:23:48;;;;;;;9.40;6.50;;;;;;;2.41;84.53;94499.00;106753;1274;22513;-65
2023/03/07 05:26:17;;;;;;;7.50;5.60;;;;;;;2.32;84.39;94501.98;106746;1274;25456;-65
2023/03/07 05:28:46;;;;;;;34.60;16.80;;;;;;;2.26;84.31;94504.45;106801;1274;22523;-65
2023/03/07 05:31:14;;;;;;;9.90;6.40;;;;;;;2.24;84.46;94508.27;106733;1274;22511;-65
2023/03/07 05:33:45;;;;;;;7.80;5.60;;;;;;;2.22;84.42;94511.22;106673;1274;22600;-65
2023/03/07 05:36:15;;;;;;;7.20;4.30;;;;;;;2.16;84.57;94511.77;106797;1274;24341;-65
2023/03/07 05:38:43;;;;;;;8.10;6.30;;;;;;;2.12;85.14;94513.00;106829;1274;24202;-65
2023/03/07 05:41:12;;;;;;;6.50;4.80;;;;;;;2.11;85.17;94517.00;106746;1274;22547;-65
2023/03/07 05:43:40;;;;;;;12.60;8.10;;;;;;;2.09;85.21;94520.83;106739;1274;22517;-65
2023/03/07 05:46:09;;;;;;;14.90;10.00;;;;;;;2.07;86.20;94520.99;106797;1274;22528;-65
2023/03/07 05:48:37;;;;;;;35.10;17.80;;;;;;;2.06;86.59;94523.43;106712;1274;26033;-65
2023/03/07 05:51:05;;;;;;;61.40;28.90;;;;;;;2.08;86.84;94529.67;106718;1274;25393;-65
2023/03/07 05:53:34;;;;;;;55.80;26.10;;;;;;;2.16;86.81;94537.80;106861;1274;24257;-65
2023/03/07 05:56:03;;;;;;;50.20;23.90;;;;;;;2.22;86.92;94541.60;106777;1274;22522;-66
2023/03/07 05:58:31;;;;;;;74.60;33.30;;;;;;;2.24;87.12;94542.98;106827;1274;22646;-65
2023/03/07 06:01:03;;;;;;;57.00;27.60;;;;;;;2.31;87.05;94545.02;106722;1274;22518;-62
2023/03/07 06:03:32;;;;;;;26.50;14.50;;;;;;;2.37;86.81;94546.05;106706;1274;22519;-64
2023/03/07 06:06:00;;;;;;;30.10;15.50;;;;;;;2.39;86.43;94545.88;106689;1274;24215;-64
2023/03/07 06:08:28;;;;;;;18.90;8.60;;;;;;;2.44;85.41;94544.28;106744;1274;24037;-63
2023/03/07 06:10:56;;;;;;;22.40;11.70;;;;;;;2.47;84.36;94544.80;106625;1274;22531;-64
2023/03/07 06:13:25;;;;;;;13.40;6.70;;;;;;;2.52;83.82;94550.66;106657;1274;25933;-62
2023/03/07 06:15:54;;;;;;;10.30;5.80;;;;;;;2.56;82.21;94555.51;107272;1274;22733;-64
2023/03/07 06:18:24;;;;;;;11.10;5.60;;;;;;;2.59;81.45;94560.53;106614;1274;22525;-66
2023/03/07 06:21:05;;;;;;;11.30;6.60;;;;;;;2.63;80.91;94558.60;106639;1272;26494;-65
2023/03/07 06:23:37;;;;;;;22.50;11.30;;;;;;;2.68;81.57;94557.55;107690;1275;22609;-65
2023/03/07 06:26:11;;;;;;;15.10;8.60;;;;;;;2.75;81.21;94551.44;106586;1275;22529;-67
2023/03/07 06:28:40;;;;;;;36.90;19.30;;;;;;;2.79;81.02;94555.91;107595;1264;25450;-67
2023/03/07 06:31:11;;;;;;;25.60;16.00;;;;;;;2.79;79.82;94563.56;106595;1275;25413;-66
2023/03/07 06:33:41;;;;;;;18.50;11.20;;;;;;;2.79;79.53;94565.30;106623;1275;22757;-64
2023/03/07 06:36:14;;;;;;;50.60;26.00;;;;;;;2.80;78.89;94572.23;108328;1275;22514;-64
2023/03/07 06:38:44;;;;;;;38.30;21.60;;;;;;;2.85;79.07;94571.34;106660;1275;22521;-63
2023/03/07 06:41:12;;;;;;;26.50;16.20;;;;;;;2.90;78.95;94573.74;106513;1275;22539;-63
2023/03/07 06:43:41;;;;;;;35.60;24.00;;;;;;;2.93;78.78;94575.30;106972;1275;24121;-63
2023/03/07 06:46:09;;;;;;;28.00;18.50;;;;;;;2.97;79.00;94574.07;106510;1275;24270;-63
2023/03/07 06:48:39;;;;;;;17.00;9.20;;;;;;;3.05;79.28;94579.73;107638;1275;24199;-63
2023/03/07 06:51:11;;;;;;;15.50;9.50;;;;;;;3.09;79.95;94578.16;106655;1275;25933;-63
2023/03/07 06:53:40;;;;;;;22.50;14.50;;;;;;;3.11;78.66;94569.12;106699;1275;24372;-63
2023/03/07 06:56:09;;;;;;;68.20;36.20;;;;;;;3.14;78.03;94567.52;106692;1275;22520;-66
2023/03/07 06:58:37;;;;;;;38.60;22.70;;;;;;;3.17;78.46;94571.50;106654;1260;22653;-63
2023/03/07 07:01:06;;;;;;;37.90;20.90;;;;;;;3.18;77.17;94573.59;106410;1275;25259;-63
2023/03/07 07:03:35;;;;;;;20.30;13.60;;;;;;;3.20;77.23;94575.13;106536;1254;24238;-62
2023/03/07 07:06:04;;;;;;;10.80;6.30;;;;;;;3.21;76.26;94574.95;106572;1275;23837;-62
2023/03/07 07:08:32;;;;;;;10.80;6.00;;;;;;;3.23;74.95;94572.15;106616;1272;25514;-62
2023/03/07 07:11:00;;;;;;;51.90;21.10;;;;;;;3.26;75.51;94566.75;106587;1275;25258;-61
2023/03/07 07:13:29;;;;;;;14.90;8.80;;;;;;;3.31;75.16;94556.46;106526;1275;24254;-62
2023/03/07 07:16:04;;;;;;;25.70;16.50;;;;;;;3.31;74.89;94546.55;106583;1275;22514;-62
2023/03/07 07:18:33;;;;;;;13.30;8.10;;;;;;;3.38;76.12;94542.68;106441;1254;22499;-62
2023/03/07 07:21:01;;;;;;;22.00;13.70;;;;;;;3.44;76.28;94542.09;106630;1275;26551;-62
2023/03/07 07:23:30;;;;;;;18.50;9.40;;;;;;;3.51;76.32;94545.70;106624;1275;26200;-63
2023/03/07 07:25:59;;;;;;;18.10;8.80;;;;;;;3.65;77.01;94548.54;108546;1267;24250;-63
2023/03/07 07:28:27;;;;;;;13.60;7.40;;;;;;;3.79;76.28;94545.27;107512;1274;22604;-63
2023/03/07 07:30:56;;;;;;;13.20;7.30;;;;;;;3.91;76.22;94540.65;106554;1274;23617;-63
2023/03/07 07:33:24;;;;;;;12.40;7.10;;;;;;;4.07;76.27;94528.13;106853;1274;24212;-63
2023/03/07 07:35:53;;;;;;;16.50;9.60;;;;;;;4.18;75.90;94523.13;106444;1274;24288;-62
2023/03/07 07:38:22;;;;;;;59.60;28.30;;;;;;;4.23;74.59;94517.33;106508;1264;24347;-62
2023/03/07 07:40:50;;;;;;;19.10;12.40;;;;;;;4.22;73.31;94508.11;106668;1274;22513;-63
2023/03/07 07:43:18;;;;;;;14.70;8.00;;;;;;;4.26;74.33;94508.25;106116;1274;593551;-63
2023/03/07 07:45:54;;;;;;;16.60;10.70;;;;;;;4.27;74.19;94517.46;106550;1269;22528;-63
2023/03/07 07:48:24;;;;;;;17.90;10.80;;;;;;;4.28;74.51;94519.88;106556;1269;23140;-62
2023/03/07 07:50:54;;;;;;;14.80;8.90;;;;;;;4.38;74.86;94527.95;106597;1275;22528;-63
2023/03/07 07:53:23;;;;;;;11.60;6.80;;;;;;;4.53;74.61;94537.33;106713;1275;22629;-63
2023/03/07 07:55:51;;;;;;;10.80;7.10;;;;;;;4.67;74.12;94535.42;106721;1275;24311;-63
2023/03/07 07:58:19;;;;;;;10.20;6.60;;;;;;;4.79;73.37;94537.17;106816;1275;23912;-65
2023/03/07 08:00:48;;;;;;;10.70;6.20;;;;;;;4.91;73.95;94542.60;106609;1275;22542;-64
2023/03/07 08:03:16;;;;;;;10.10;5.20;;;;;;;5.02;73.79;94546.63;106467;1272;26637;-64
2023/03/07 08:05:47;;;;;;;12.00;5.70;;;;;;;5.10;73.33;94545.13;106788;1267;22647;-63
2023/03/07 08:08:17;;;;;;;11.70;5.80;;;;;;;5.19;72.36;94543.42;106723;1272;22518;-63
2023/03/07 08:10:46;;;;;;;12.60;6.70;;;;;;;5.30;72.31;94545.34;106682;1267;25191;-63
2023/03/07 08:13:16;;;;;;;14.70;8.20;;;;;;;5.42;71.57;94543.41;106696;1270;22517;-63
2023/03/07 08:15:44;;;;;;;17.60;7.40;;;;;;;5.56;71.37;94538.66;106647;1275;22566;-63
2023/03/07 08:18:13;;;;;;;13.60;6.00;;;;;;;5.74;71.03;94536.79;106559;1275;22625;-63
2023/03/07 08:20:41;;;;;;;11.10;6.10;;;;;;;5.91;69.63;94535.13;106456;1275;22573;-63
2023/03/07 08:23:09;;;;;;;10.20;6.00;;;;;;;6.01;67.79;94530.77;106507;1275;24082;-63
2023/03/07 08:25:37;;;;;;;9.40;5.80;;;;;;;6.15;68.36;94526.67;106580;1275;24380;-63
2023/03/07 08:28:06;;;;;;;9.50;5.60;;;;;;;6.26;67.75;94523.52;106527;1275;24262;-64
2023/03/07 08:30:34;;;;;;;9.90;6.30;;;;;;;6.38;68.05;94528.33;106535;1275;22521;-63
2023/03/07 08:33:03;;;;;;;10.70;6.80;;;;;;;6.51;67.30;94527.38;106630;1275;22616;-63
2023/03/07 08:35:31;;;;;;;19.20;8.70;;;;;;;6.57;66.41;94521.48;106473;1275;22530;-63
2023/03/07 08:38:00;;;;;;;11.20;7.10;;;;;;;6.53;64.53;94521.92;106524;1264;24252;-65
2023/03/07 08:40:29;;;;;;;13.70;6.90;;;;;;;6.50;65.54;94520.94;106393;1272;22516;-65
2023/03/07 08:42:58;;;;;;;15.70;7.40;;;;;;;6.51;64.11;94520.91;106577;1275;22526;-64
2023/03/07 08:45:26;;;;;;;11.50;7.90;;;;;;;6.55;63.78;94526.08;106482;1275;25503;-63
2023/03/07 08:47:55;;;;;;;16.70;9.30;;;;;;;6.57;61.91;94527.26;106544;1275;24368;-64
2023/03/07 08:50:26;;;;;;;16.90;8.80;;;;;;;6.53;60.67;94529.80;106504;1275;22514;-64
2023/03/07 08:52:56;;;;;;;12.90;8.30;;;;;;;6.51;61.03;94528.59;110198;1275;22516;-62
2023/03/07 08:55:24;;;;;;;14.20;7.30;;;;;;;6.49;61.05;94523.23;106396;1275;22650;-64
2023/03/07 08:57:52;;;;;;;14.00;8.30;;;;;;;6.51;59.79;94528.42;106397;1275;25390;-63
2023/03/07 09:00:21;;;;;;;9.90;6.30;;;;;;;6.51;58.94;94530.51;106495;1267;24244;-64
2023/03/07 09:02:49;;;;;;;11.70;6.80;;;;;;;6.65;60.30;94530.77;106786;1272;25498;-64
2023/03/07 09:05:17;;;;;;;14.40;7.60;;;;;;;6.75;58.74;94523.23;106528;1274;25265;-64
2023/03/07 09:07:45;;;;;;;11.20;6.90;;;;;;;6.78;57.87;94525.42;106677;1274;22629;-66
2023/03/07 09:10:14;;;;;;;11.30;6.50;;;;;;;6.82;58.08;94529.69;106776;1274;25255;-67
2023/03/07 09:12:42;;;;;;;11.60;6.40;;;;;;;6.96;58.61;94524.16;106697;1274;22517;-65
2023/03/07 09:15:10;;;;;;;9.10;5.60;;;;;;;7.10;58.10;94523.67;106616;1273;22553;-68
2023/03/07 09:17:38;;;;;;;10.60;6.00;;;;;;;7.21;58.48;94520.65;106503;1274;25225;-67
2023/03/07 09:20:08;;;;;;;9.70;6.40;;;;;;;7.35;58.42;94517.33;106652;1274;22518;-66
2023/03/07 09:22:36;;;;;;;9.40;5.80;;;;;;;7.48;57.82;94516.16;106792;1274;23420;-66
2023/03/07 09:25:05;;;;;;;11.40;6.50;;;;;;;7.59;57.62;94516.93;107259;1274;25328;-66
2023/03/07 09:27:33;;;;;;;10.90;6.40;;;;;;;7.67;55.87;94513.77;107135;1274;22975;-69
2023/03/07 09:30:02;;;;;;;9.70;5.50;;;;;;;7.70;56.64;94514.39;106692;1274;25324;-65
2023/03/07 09:32:32;;;;;;;8.70;6.10;;;;;;;7.80;56.48;94512.58;106767;1271;22514;-67
2023/03/07 09:35:00;;;;;;;7.10;4.90;;;;;;;7.87;56.12;94512.23;106723;1274;24349;-70
2023/03/07 09:37:28;;;;;;;10.90;5.30;;;;;;;7.92;56.23;94514.38;106743;1274;22524;-68
2023/03/07 09:39:57;;;;;;;10.80;5.80;;;;;;;8.05;56.15;94514.37;106691;1274;22528;-67
2023/03/07 09:42:34;;;;;;;11.00;5.90;;;;;;;8.12;54.68;94512.42;106754;1274;23881;-67
2023/03/07 09:45:02;;;;;;;8.90;5.50;;;;;;;8.16;54.54;94517.61;106496;1272;24256;-66
2023/03/07 09:48:05;;;;;;;9.30;4.90;;;;;;;8.24;55.00;94522.29;106427;1275;22527;-68
2023/03/07 09:50:44;;;;;;;9.70;5.40;;;;;;;8.26;52.81;94519.42;106454;1275;24343;-67
2023/03/07 09:53:22;;;;;;;8.30;5.20;;;;;;;8.40;54.52;94522.20;106462;1271;22586;-67
2023/03/07 09:55:56;;;;;;;9.50;5.70;;;;;;;8.52;53.20;94519.28;106632;1274;22530;-69
2023/03/07 09:58:25;;;;;;;8.00;4.00;;;;;;;8.47;49.24;94521.88;106661;1274;24218;-69
2023/03/07 10:01:00;;;;;;;6.60;3.90;;;;;;;8.34;46.60;94515.88;106522;1263;22527;-66
2023/03/07 10:03:44;;;;;;;6.30;3.20;;;;;;;8.33;46.92;94514.17;106967;1272;22537;-68
2023/03/07 10:06:19;;;;;;;4.20;3.10;;;;;;;8.31;45.98;94517.38;106492;1275;22592;-66
2023/03/07 10:08:47;;;;;;;7.60;4.00;;;;;;;8.30;45.18;94515.48;107572;1275;22665;-68
2023/03/07 10:11:15;;;;;;;7.50;3.80;;;;;;;8.36;45.33;94518.11;106796;1275;22504;-67
2023/03/07 10:13:46;;;;;;;5.60;3.60;;;;;;;8.34;42.00;94519.23;106730;1275;22956;-64
2023/03/07 10:16:33;;;;;;;7.10;3.40;;;;;;;8.34;42.42;94529.39;108310;1275;25230;-65
2023/03/07 10:19:26;;;;;;;8.60;4.20;;;;;;;8.21;41.53;94524.46;106601;1275;25467;-64
2023/03/07 10:22:17;;;;;;;7.10;3.90;;;;;;;8.17;41.76;94527.36;106485;1275;25347;-64
2023/03/07 10:25:04;;;;;;;6.40;4.10;;;;;;;8.17;41.64;94523.88;106719;1254;24324;-64
2023/03/07 10:27:33;;;;;;;6.10;3.50;;;;;;;8.23;41.88;94524.59;106722;1275;24368;-64
2023/03/07 10:30:11;;;;;;;6.70;3.50;;;;;;;8.38;42.91;94527.35;106513;1275;23313;-65
2023/03/07 10:32:45;;;;;;;6.60;3.80;;;;;;;8.51;40.67;94532.11;106673;1275;22528;-65
2023/03/07 10:35:21;;;;;;;9.10;3.90;;;;;;;8.67;41.38;94531.32;106615;1254;24451;-64
2023/03/07 10:38:10;;;;;;;77.70;41.20;;;;;;;8.88;42.16;94529.84;106776;1274;22535;-64
2023/03/07 10:40:47;;;;;;;9.90;4.70;;;;;;;9.06;42.06;94531.05;106966;1272;25388;-65
2023/03/07 10:43:26;;;;;;;7.10;3.90;;;;;;;9.13;42.11;94532.41;106639;1267;23141;-64
2023/03/07 10:46:01;;;;;;;6.90;4.40;;;;;;;8.92;40.92;94538.83;106660;1272;25347;-65
2023/03/07 10:48:30;;;;;;;6.50;4.20;;;;;;;8.78;41.60;94540.83;106652;1272;23877;-65
2023/03/07 10:51:10;;;;;;;14.80;9.70;;;;;;;8.73;42.77;94538.84;106644;1270;24047;-66
2023/03/07 10:53:38;;;;;;;7.20;4.20;;;;;;;8.75;42.73;94537.77;106689;1272;25494;-66
2023/03/07 10:56:11;;;;;;;6.30;4.30;;;;;;;8.86;42.73;94533.58;106635;1272;22560;-66
2023/03/07 10:58:57;;;;;;;6.00;4.10;;;;;;;8.91;42.30;94526.92;106688;1253;24205;-66
2023/03/07 11:01:27;;;;;;;5.50;3.90;;;;;;;8.93;42.02;94525.12;106711;1272;22770;-66
2023/03/07 11:04:03;;;;;;;7.00;4.20;;;;;;;8.96;42.00;94518.73;106691;1272;25265;-66
2023/03/07 11:06:43;;;;;;;6.50;4.50;;;;;;;9.16;42.43;94515.69;106675;1269;22517;-66
2023/03/07 11:09:11;;;;;;;7.30;4.60;;;;;;;9.36;41.79;94508.21;106738;1270;22513;-66
2023/03/07 11:11:50;;;;;;;6.40;4.60;;;;;;;9.49;41.86;94508.33;106661;1270;22524;-66
2023/03/07 11:14:20;;;;;;;5.90;4.50;;;;;;;9.77;41.58;94509.52;106704;1274;22520;-66
2023/03/07 11:16:55;;;;;;;5.90;4.20;;;;;;;10.04;40.90;94511.10;106886;1270;22859;-66
2023/03/07 11:19:44;;;;;;;6.30;3.80;;;;;;;10.18;39.71;94507.27;106627;1270;22638;-66
2023/03/07 11:22:32;;;;;;;9.00;5.20;;;;;;;10.23;40.38;94501.65;106932;1267;22641;-66
2023/03/07 11:25:21;;;;;;;8.60;5.10;;;;;;;10.27;40.59;94499.25;106663;1272;22524;-67
2023/03/07 11:27:57;;;;;;;7.50;4.30;;;;;;;10.24;41.16;94502.15;106663;1273;22524;-66
2023/03/07 11:31:14;;;;;;;7.70;3.90;;;;;;;10.04;40.24;94503.89;106628;1272;24237;-66
2023/03/07 11:33:51;;;;;;;8.00;4.40;;;;;;;9.69;41.39;94502.27;106494;1274;22530;-65
2023/03/07 11:36:34;;;;;;;10.40;6.10;;;;;;;9.46;41.74;94499.46;106627;1272;25415;-66
2023/03/07 11:39:11;;;;;;;9.00;6.10;;;;;;;9.35;42.63;94497.20;106667;1267;25495;-66
2023/03/07 11:41:44;;;;;;;5.20;3.60;;;;;;;9.32;42.25;94502.91;106565;1267;22639;-65
2023/03/07 11:44:25;;;;;;;6.50;3.90;;;;;;;9.20;41.61;94503.97;106584;1270;22511;-66